Time;durP1;ratioP1;P1;durP2;ratioP2;P2;SDS_P1;SDS_P2;PMS_P1;PMS_P2;Temp;Humidity;BMP_temperature;BMP_pressure;BME280_temperature;BME280_humidity;BME280_pressure;Samples;Min_cycle;Max_cycle;Signal;HPM_P1;HPM_P2
2021/12/07 00:00:25;;;;;;;36.53;14.57;;;;;;;;;;5102488;28;20102;-86
2021/12/07 00:02:51;;;;;;;32.65;13.73;;;;;;;;;;5104038;28;20079;-87
2021/12/07 00:05:18;;;;;;;34.97;14.30;;;;;;;;;;5092633;28;20050;-86
2021/12/07 00:07:44;;;;;;;32.33;14.57;;;;;;;;;;5097015;28;20044;-86
2021/12/07 00:10:11;;;;;;;38.25;14.90;;;;;;;;;;5090395;28;20066;-78
2021/12/07 00:12:41;;;;;;;33.65;14.55;;;;;;;;;;5108683;28;20039;-78
2021/12/07 00:15:07;;;;;;;38.70;14.30;;;;;;;;;;5110155;28;20061;-87
2021/12/07 00:17:34;;;;;;;35.45;14.32;;;;;;;;;;5108985;28;20525;-87
2021/12/07 00:20:01;;;;;;;33.38;14.30;;;;;;;;;;5108742;28;20048;-77
2021/12/07 00:22:27;;;;;;;31.58;13.77;;;;;;;;;;5091751;28;20036;-77
2021/12/07 00:24:53;;;;;;;33.58;13.68;;;;;;;;;;5091725;28;20135;-78
2021/12/07 00:27:19;;;;;;;36.03;14.32;;;;;;;;;;5125492;27;20391;-77
2021/12/07 00:29:46;;;;;;;33.28;13.95;;;;;;;;;;5108610;28;20067;-77
2021/12/07 00:32:26;;;;;;;35.30;15.02;;;;;;;;;;5087642;28;20399;-86
2021/12/07 00:35:22;;;;;;;35.88;13.95;;;;;;;;;;5100290;28;20044;-86
2021/12/07 00:37:51;;;;;;;36.00;14.63;;;;;;;;;;5096005;28;20046;-86
2021/12/07 00:40:18;;;;;;;34.78;14.35;;;;;;;;;;5108411;28;20546;-86
2021/12/07 00:42:44;;;;;;;33.92;12.98;;;;;;;;;;5108807;28;20047;-86
2021/12/07 00:45:12;;;;;;;34.47;14.18;;;;;;;;;;5108654;28;20479;-88
2021/12/07 00:47:38;;;;;;;30.27;12.07;;;;;;;;;;5107814;28;20062;-77
2021/12/07 00:50:06;;;;;;;34.03;13.98;;;;;;;;;;5108423;28;20071;-78
2021/12/07 00:52:32;;;;;;;30.63;11.82;;;;;;;;;;5090994;28;20043;-76
2021/12/07 00:54:58;;;;;;;23.67;10.30;;;;;;;;;;5108948;28;20277;-75
2021/12/07 00:57:25;;;;;;;31.70;12.70;;;;;;;;;;5091003;28;20047;-77
2021/12/07 00:59:51;;;;;;;28.40;11.07;;;;;;;;;;5104644;28;20059;-77
2021/12/07 01:02:17;;;;;;;25.20;10.35;;;;;;;;;;5079917;28;20074;-76
2021/12/07 01:04:51;;;;;;;29.50;12.23;;;;;;;;;;5108335;28;20126;-77
2021/12/07 01:07:25;;;;;;;29.98;12.05;;;;;;;;;;5090792;28;20044;-75
2021/12/07 01:26:20;;;;;;;28.35;11.23;;;;;;;;;;5115124;28;20553;-86
2021/12/07 01:28:46;;;;;;;26.10;11.43;;;;;;;;;;5115162;28;20039;-86
2021/12/07 01:31:22;;;;;;;24.20;11.05;;;;;;;;;;5114755;28;20040;-87
2021/12/07 02:00:20;;;;;;;21.40;10.45;;;;;;;;;;5115571;28;20047;-85
2021/12/07 02:02:46;;;;;;;23.08;10.20;;;;;;;;;;5115699;28;20051;-86
2021/12/07 02:05:13;;;;;;;20.02;9.35;;;;;;;;;;5132128;27;20042;-77
2021/12/07 02:07:39;;;;;;;22.35;10.75;;;;;;;;;;5114239;27;20036;-77
2021/12/07 02:10:11;;;;;;;20.80;10.32;;;;;;;;;;5114215;28;20405;-77
2021/12/07 02:12:48;;;;;;;20.13;9.43;;;;;;;;;;5097257;28;20494;-77
2021/12/07 02:15:25;;;;;;;22.30;9.70;;;;;;;;;;5094816;28;20043;-86
2021/12/07 02:17:52;;;;;;;17.75;8.95;;;;;;;;;;5112547;28;20055;-77
2021/12/07 02:20:20;;;;;;;19.92;9.73;;;;;;;;;;5097760;28;20402;-76
2021/12/07 02:22:46;;;;;;;17.75;9.40;;;;;;;;;;5114911;28;20491;-86
2021/12/07 02:25:14;;;;;;;18.35;9.18;;;;;;;;;;5098117;28;20479;-77
2021/12/07 02:27:40;;;;;;;22.05;10.15;;;;;;;;;;5110811;28;20098;-77
2021/12/07 02:30:09;;;;;;;20.65;9.98;;;;;;;;;;5076912;28;20035;-77
2021/12/07 02:32:35;;;;;;;21.42;10.10;;;;;;;;;;5111805;28;20046;-77
2021/12/07 02:35:01;;;;;;;20.88;9.77;;;;;;;;;;5112293;28;20043;-77
2021/12/07 02:37:29;;;;;;;22.27;10.85;;;;;;;;;;5113367;28;20074;-86
2021/12/07 02:39:56;;;;;;;19.58;9.82;;;;;;;;;;5113865;28;20562;-85
2021/12/07 02:42:22;;;;;;;21.25;9.77;;;;;;;;;;5111432;28;20039;-77
2021/12/07 02:44:48;;;;;;;20.20;9.65;;;;;;;;;;5097466;28;20044;-78
2021/12/07 02:47:15;;;;;;;22.42;10.25;;;;;;;;;;5104748;28;20089;-77
2021/12/07 02:49:41;;;;;;;20.98;10.02;;;;;;;;;;5107401;28;20039;-86
2021/12/07 02:52:07;;;;;;;20.85;10.48;;;;;;;;;;5108971;28;20047;-86
2021/12/07 02:54:34;;;;;;;22.27;10.38;;;;;;;;;;5093846;28;20051;-77
2021/12/07 02:57:02;;;;;;;22.92;10.25;;;;;;;;;;5091735;28;20053;-77
2021/12/07 02:59:28;;;;;;;23.83;10.35;;;;;;;;;;5081789;28;20044;-77
2021/12/07 03:02:02;;;;;;;22.67;10.05;;;;;;;;;;5104777;28;20036;-77
2021/12/07 03:04:35;;;;;;;21.90;10.73;;;;;;;;;;5095720;28;20075;-77
2021/12/07 03:07:27;;;;;;;23.98;10.15;;;;;;;;;;5097271;28;20101;-86
2021/12/07 03:26:44;;;;;;;23.25;10.40;;;;;;;;;;5102307;28;20131;-77
2021/12/07 03:29:10;;;;;;;23.23;11.20;;;;;;;;;;5090816;28;20062;-77
2021/12/07 03:31:36;;;;;;;23.52;10.43;;;;;;;;;;5094711;28;20039;-77
2021/12/07 03:34:02;;;;;;;22.80;10.80;;;;;;;;;;5105812;28;20092;-76
2021/12/07 03:36:30;;;;;;;25.17;11.38;;;;;;;;;;5100297;28;20057;-77
2021/12/07 03:38:56;;;;;;;21.08;10.20;;;;;;;;;;5100278;28;20036;-77
2021/12/07 03:41:23;;;;;;;22.30;10.43;;;;;;;;;;5080839;28;20043;-76
2021/12/07 03:43:49;;;;;;;24.38;10.63;;;;;;;;;;5094747;28;20502;-76
2021/12/07 03:46:15;;;;;;;25.23;11.00;;;;;;;;;;5100894;28;20036;-85
2021/12/07 03:48:42;;;;;;;24.40;10.90;;;;;;;;;;5105800;28;20048;-76
2021/12/07 03:51:08;;;;;;;27.83;11.25;;;;;;;;;;5079534;28;20047;-77
2021/12/07 03:53:35;;;;;;;24.35;10.90;;;;;;;;;;5104801;28;20104;-78
2021/12/07 03:56:03;;;;;;;25.00;11.27;;;;;;;;;;5093858;28;20032;-77
2021/12/07 03:58:29;;;;;;;24.02;11.27;;;;;;;;;;5096878;28;20035;-77
2021/12/07 04:00:56;;;;;;;20.20;10.18;;;;;;;;;;5098452;28;20095;-77
2021/12/07 04:03:22;;;;;;;25.90;10.80;;;;;;;;;;5092487;28;20491;-77
2021/12/07 04:05:55;;;;;;;25.75;11.55;;;;;;;;;;5110011;28;20040;-85
2021/12/07 04:08:25;;;;;;;22.17;10.48;;;;;;;;;;5111491;28;20048;-85
2021/12/07 04:10:52;;;;;;;21.95;10.23;;;;;;;;;;5111375;28;20203;-85
2021/12/07 04:13:18;;;;;;;30.45;10.98;;;;;;;;;;5110339;28;20043;-85
2021/12/07 04:15:45;;;;;;;23.08;10.25;;;;;;;;;;5110519;28;20081;-86
2021/12/07 04:18:11;;;;;;;20.20;10.40;;;;;;;;;;5093376;28;20124;-86
2021/12/07 04:20:37;;;;;;;22.63;10.73;;;;;;;;;;5110325;28;20551;-86
2021/12/07 04:23:04;;;;;;;21.63;10.00;;;;;;;;;;5110239;28;20398;-85
2021/12/07 04:25:30;;;;;;;23.50;10.20;;;;;;;;;;5110792;28;20563;-86
2021/12/07 04:27:56;;;;;;;23.00;11.18;;;;;;;;;;5108616;28;20075;-77
2021/12/07 04:30:27;;;;;;;25.92;11.20;;;;;;;;;;5092119;28;20040;-77
2021/12/07 04:32:53;;;;;;;22.00;9.85;;;;;;;;;;5108933;28;20042;-77
2021/12/07 04:35:19;;;;;;;22.52;11.05;;;;;;;;;;5108656;28;20573;-77
2021/12/07 04:37:46;;;;;;;22.50;10.45;;;;;;;;;;5113787;27;20044;-85
2021/12/07 04:40:20;;;;;;;27.65;10.63;;;;;;;;;;5095144;28;20471;-85
2021/12/07 04:42:46;;;;;;;24.60;10.48;;;;;;;;;;5111927;28;20071;-85
2021/12/07 04:45:25;;;;;;;22.85;9.93;;;;;;;;;;5111759;28;20071;-85
2021/12/07 04:58:35;;;;;;;25.33;10.50;;;;;;;;;;5094010;28;20036;-77
2021/12/07 05:01:08;;;;;;;29.65;10.07;;;;;;;;;;5087388;28;20482;-77
2021/12/07 05:03:34;;;;;;;27.52;9.70;;;;;;;;;;5095252;28;20075;-77
2021/12/07 05:06:00;;;;;;;22.20;9.30;;;;;;;;;;5073714;28;20405;-77
2021/12/07 05:08:43;;;;;;;25.77;10.52;;;;;;;;;;5101682;28;20126;-77
2021/12/07 05:11:26;;;;;;;26.40;10.10;;;;;;;;;;5085489;28;20048;-77
2021/12/07 05:13:59;;;;;;;26.52;10.38;;;;;;;;;;5102353;28;20042;-77
2021/12/07 05:24:19;;;;;;;21.15;9.00;;;;;;;;;;5114517;27;20047;-77
2021/12/07 05:40:12;;;;;;;21.42;7.93;;;;;;;;;;5103365;28;20043;-77
2021/12/07 05:42:40;;;;;;;26.55;8.13;;;;;;;;;;5100815;28;20490;-77
2021/12/07 05:45:07;;;;;;;28.98;7.65;;;;;;;;;;5095335;28;20058;-77
2021/12/07 05:47:33;;;;;;;30.40;7.85;;;;;;;;;;5091401;28;20117;-77
2021/12/07 05:49:59;;;;;;;21.27;7.50;;;;;;;;;;5080445;28;20505;-77
2021/12/07 05:52:25;;;;;;;22.05;7.50;;;;;;;;;;5096816;28;20044;-77
2021/12/07 05:54:51;;;;;;;24.33;7.55;;;;;;;;;;5100337;28;20032;-83
2021/12/07 05:57:18;;;;;;;22.90;7.22;;;;;;;;;;5095009;28;20606;-76
2021/12/07 05:59:45;;;;;;;26.00;7.88;;;;;;;;;;5103317;28;20036;-77
2021/12/07 06:02:11;;;;;;;28.35;7.30;;;;;;;;;;5107663;28;20515;-76
2021/12/07 06:04:37;;;;;;;24.27;7.95;;;;;;;;;;5113496;28;20047;-83
2021/12/07 06:07:04;;;;;;;20.65;7.68;;;;;;;;;;5111315;28;20514;-77
2021/12/07 06:09:30;;;;;;;18.00;7.35;;;;;;;;;;5111957;28;20175;-83
2021/12/07 06:11:57;;;;;;;17.58;6.40;;;;;;;;;;5095095;28;20045;-84
2021/12/07 06:14:30;;;;;;;19.75;6.43;;;;;;;;;;5097175;28;20040;-84
2021/12/07 06:16:57;;;;;;;28.65;6.43;;;;;;;;;;5113045;28;20123;-84
2021/12/07 06:19:23;;;;;;;19.90;6.22;;;;;;;;;;5094889;28;20129;-84
2021/12/07 06:21:49;;;;;;;21.30;6.75;;;;;;;;;;5112227;28;20048;-84
2021/12/07 06:24:15;;;;;;;22.58;6.38;;;;;;;;;;5094463;28;20551;-77
2021/12/07 06:26:42;;;;;;;26.17;6.45;;;;;;;;;;5111497;28;20502;-77
2021/12/07 06:29:08;;;;;;;17.52;6.28;;;;;;;;;;5080795;28;20046;-77
2021/12/07 06:31:34;;;;;;;23.27;6.60;;;;;;;;;;5111397;28;20028;-77
2021/12/07 06:34:01;;;;;;;22.42;5.95;;;;;;;;;;5112180;28;20036;-84
2021/12/07 06:36:27;;;;;;;23.13;6.00;;;;;;;;;;5109121;28;20067;-83
2021/12/07 06:38:58;;;;;;;17.25;5.93;;;;;;;;;;5101217;28;20041;-84
2021/12/07 06:41:24;;;;;;;14.88;5.00;;;;;;;;;;5110997;28;20048;-83
2021/12/07 06:43:50;;;;;;;19.40;5.20;;;;;;;;;;5111666;28;20044;-77
2021/12/07 06:46:16;;;;;;;19.52;5.50;;;;;;;;;;5097329;28;20100;-84
2021/12/07 06:48:42;;;;;;;14.20;4.75;;;;;;;;;;5111303;28;20036;-83
2021/12/07 06:51:08;;;;;;;23.80;5.85;;;;;;;;;;5110929;28;20538;-84
2021/12/07 06:53:37;;;;;;;18.70;5.57;;;;;;;;;;5080008;28;20047;-84
2021/12/07 06:56:05;;;;;;;14.95;4.55;;;;;;;;;;5093984;28;20174;-84
2021/12/07 06:58:31;;;;;;;22.90;5.65;;;;;;;;;;5096478;28;20092;-84
2021/12/07 07:00:57;;;;;;;22.83;5.57;;;;;;;;;;5106996;28;20135;-84
2021/12/07 07:03:23;;;;;;;16.92;4.50;;;;;;;;;;5093669;28;20415;-78
2021/12/07 07:05:49;;;;;;;22.90;5.65;;;;;;;;;;5106804;28;20044;-78
2021/12/07 07:08:15;;;;;;;23.48;5.35;;;;;;;;;;5066016;28;20043;-84
2021/12/07 07:10:42;;;;;;;19.67;5.05;;;;;;;;;;5109926;28;20102;-84
2021/12/07 07:13:08;;;;;;;17.48;4.10;;;;;;;;;;5110288;28;20054;-84
2021/12/07 07:15:34;;;;;;;18.35;4.38;;;;;;;;;;5111039;28;20122;-84
2021/12/07 07:18:00;;;;;;;18.65;4.55;;;;;;;;;;5110231;28;20067;-84
2021/12/07 07:20:27;;;;;;;24.08;4.50;;;;;;;;;;5111401;28;20123;-84
2021/12/07 07:22:53;;;;;;;23.08;4.90;;;;;;;;;;5094278;28;20031;-84
2021/12/07 07:25:19;;;;;;;17.83;4.68;;;;;;;;;;5109734;28;20382;-77
2021/12/07 07:27:46;;;;;;;17.75;4.50;;;;;;;;;;5092910;28;20490;-77
2021/12/07 07:30:13;;;;;;;18.40;4.68;;;;;;;;;;5109990;28;20498;-77
2021/12/07 07:32:39;;;;;;;15.70;4.70;;;;;;;;;;5096052;28;20058;-77
2021/12/07 07:35:06;;;;;;;21.00;4.55;;;;;;;;;;5093782;28;20108;-84
2021/12/07 07:37:33;;;;;;;16.35;4.20;;;;;;;;;;5110295;28;20050;-84
2021/12/07 07:39:59;;;;;;;16.05;4.55;;;;;;;;;;5109901;28;20058;-84
2021/12/07 07:42:25;;;;;;;21.02;5.00;;;;;;;;;;5109043;28;20365;-77
2021/12/07 07:44:51;;;;;;;13.85;4.60;;;;;;;;;;5109550;28;20054;-77
2021/12/07 07:47:17;;;;;;;13.63;4.20;;;;;;;;;;5109091;28;20061;-77
2021/12/07 07:49:43;;;;;;;18.30;4.75;;;;;;;;;;5109180;28;20391;-77
2021/12/07 07:52:10;;;;;;;18.58;4.80;;;;;;;;;;5092435;28;20510;-77
2021/12/07 07:54:36;;;;;;;15.85;4.68;;;;;;;;;;5079140;28;20040;-77
2021/12/07 07:57:02;;;;;;;16.95;4.70;;;;;;;;;;5108257;28;20081;-77
2021/12/07 07:59:28;;;;;;;16.80;4.97;;;;;;;;;;5108980;28;20125;-77
2021/12/07 08:01:54;;;;;;;16.77;4.97;;;;;;;;;;5092741;28;20609;-76
2021/12/07 08:04:20;;;;;;;18.15;5.50;;;;;;;;;;5105222;28;20122;-83
2021/12/07 08:06:46;;;;;;;17.48;5.40;;;;;;;;;;5083600;28;20047;-83
2021/12/07 08:09:13;;;;;;;12.10;5.45;;;;;;;;;;5092059;28;20074;-77
2021/12/07 08:11:39;;;;;;;17.80;5.55;;;;;;;;;;5110694;28;20031;-77
2021/12/07 08:14:06;;;;;;;19.67;5.47;;;;;;;;;;5108585;28;20043;-77
2021/12/07 08:16:32;;;;;;;15.30;5.30;;;;;;;;;;5109120;28;20063;-84
2021/12/07 08:18:58;;;;;;;14.73;5.47;;;;;;;;;;5108831;28;20055;-77
2021/12/07 08:21:24;;;;;;;17.60;5.45;;;;;;;;;;5108592;28;20043;-84
2021/12/07 08:23:50;;;;;;;21.75;4.95;;;;;;;;;;5108133;28;20043;-85
2021/12/07 08:26:20;;;;;;;12.60;4.85;;;;;;;;;;5108209;28;20042;-84
2021/12/07 08:28:46;;;;;;;9.02;3.78;;;;;;;;;;5109141;28;20579;-84
2021/12/07 08:31:12;;;;;;;10.02;3.63;;;;;;;;;;5108860;28;20363;-77
2021/12/07 08:33:38;;;;;;;12.65;3.95;;;;;;;;;;5100069;28;20119;-77
2021/12/07 08:36:05;;;;;;;8.10;3.40;;;;;;;;;;5102652;28;20579;-77
2021/12/07 08:38:31;;;;;;;11.35;3.17;;;;;;;;;;5095142;28;20107;-77
2021/12/07 08:40:57;;;;;;;8.98;3.00;;;;;;;;;;5108753;28;20039;-77
2021/12/07 08:43:25;;;;;;;10.02;3.03;;;;;;;;;;5108047;28;20032;-78
2021/12/07 08:45:52;;;;;;;17.20;3.53;;;;;;;;;;5091667;28;20053;-77
2021/12/07 08:48:18;;;;;;;8.20;3.67;;;;;;;;;;5107940;28;20123;-78
2021/12/07 08:50:45;;;;;;;11.15;3.20;;;;;;;;;;5092160;28;20035;-78
2021/12/07 08:53:13;;;;;;;23.15;3.22;;;;;;;;;;5091466;28;20046;-78
2021/12/07 09:01:34;;;;;;;9.60;2.92;;;;;;;;;;5018472;28;20107;-78
2021/12/07 09:04:00;;;;;;;60.63;4.72;;;;;;;;;;5096476;28;20058;-78
2021/12/07 09:06:27;;;;;;;20.73;3.10;;;;;;;;;;5091050;28;20083;-78
2021/12/07 09:08:53;;;;;;;36.72;4.20;;;;;;;;;;5091590;28;20047;-78
2021/12/07 09:11:19;;;;;;;15.30;2.90;;;;;;;;;;5108242;28;20036;-78
2021/12/07 09:13:46;;;;;;;6.90;2.10;;;;;;;;;;5108524;28;20051;-78
2021/12/07 09:16:14;;;;;;;8.35;2.55;;;;;;;;;;5108635;28;20031;-78
2021/12/07 09:18:41;;;;;;;11.50;3.42;;;;;;;;;;5109503;28;20051;-77
2021/12/07 09:21:07;;;;;;;9.82;2.92;;;;;;;;;;5108672;28;20058;-77
2021/12/07 09:23:33;;;;;;;10.15;2.50;;;;;;;;;;5108962;28;20040;-85
2021/12/07 09:25:59;;;;;;;9.27;2.50;;;;;;;;;;5108385;28;20054;-85
2021/12/07 09:28:26;;;;;;;7.68;2.08;;;;;;;;;;5100690;28;20043;-85
2021/12/07 09:30:52;;;;;;;9.90;2.50;;;;;;;;;;5084902;28;20067;-85
2021/12/07 09:33:23;;;;;;;7.18;2.30;;;;;;;;;;5107927;28;20074;-86
2021/12/07 09:35:49;;;;;;;10.35;3.05;;;;;;;;;;5111910;28;20039;-86
2021/12/07 09:38:16;;;;;;;8.43;1.90;;;;;;;;;;5111687;28;20405;-86
2021/12/07 09:40:42;;;;;;;7.78;2.15;;;;;;;;;;5112801;28;20120;-85
2021/12/07 09:43:09;;;;;;;9.00;2.38;;;;;;;;;;5112620;28;20160;-86
2021/12/07 09:45:35;;;;;;;6.88;1.85;;;;;;;;;;5112279;28;20050;-77
2021/12/07 09:48:03;;;;;;;6.13;2.03;;;;;;;;;;5112355;28;20564;-78
2021/12/07 09:50:29;;;;;;;7.93;2.30;;;;;;;;;;5112066;28;20521;-78
2021/12/07 09:52:55;;;;;;;6.97;2.00;;;;;;;;;;5112085;28;20036;-85
2021/12/07 09:55:22;;;;;;;12.82;2.42;;;;;;;;;;5111760;28;20027;-86
2021/12/07 09:57:49;;;;;;;7.88;2.28;;;;;;;;;;5112439;28;20044;-86
2021/12/07 10:00:18;;;;;;;7.18;1.90;;;;;;;;;;5113235;28;20486;-85
2021/12/07 10:02:45;;;;;;;10.85;2.00;;;;;;;;;;5095817;28;20092;-78
2021/12/07 10:05:12;;;;;;;8.07;2.00;;;;;;;;;;5098905;28;20051;-77
2021/12/07 10:07:38;;;;;;;10.23;2.40;;;;;;;;;;5110231;28;20032;-78
2021/12/07 10:10:08;;;;;;;10.27;2.10;;;;;;;;;;5101672;28;20032;-78
2021/12/07 10:12:36;;;;;;;6.78;1.80;;;;;;;;;;5094428;28;20471;-78
2021/12/07 10:15:09;;;;;;;10.18;2.10;;;;;;;;;;5112120;28;20128;-78
2021/12/07 10:17:38;;;;;;;12.45;2.20;;;;;;;;;;5094540;28;20064;-78
2021/12/07 10:20:23;;;;;;;11.02;2.00;;;;;;;;;;5112411;28;20471;-78
2021/12/07 10:22:51;;;;;;;8.25;2.00;;;;;;;;;;5094772;28;20043;-85
2021/12/07 10:25:28;;;;;;;8.75;2.30;;;;;;;;;;5094733;28;20043;-77
2021/12/07 10:27:56;;;;;;;8.38;2.53;;;;;;;;;;5111557;28;20043;-77
2021/12/07 10:30:23;;;;;;;10.82;2.35;;;;;;;;;;5110955;28;20043;-85
2021/12/07 10:33:00;;;;;;;9.93;2.75;;;;;;;;;;5080118;28;20048;-84
2021/12/07 10:35:31;;;;;;;10.23;2.67;;;;;;;;;;5111953;28;20471;-85
2021/12/07 10:38:11;;;;;;;9.55;2.50;;;;;;;;;;5112095;28;20479;-84
2021/12/07 10:40:54;;;;;;;12.32;3.40;;;;;;;;;;5095045;28;20054;-85
2021/12/07 10:43:38;;;;;;;9.30;2.90;;;;;;;;;;5096121;28;20447;-78
2021/12/07 10:46:24;;;;;;;11.63;2.80;;;;;;;;;;5110205;28;20424;-84
2021/12/07 10:48:51;;;;;;;10.82;3.03;;;;;;;;;;5094289;28;20078;-75
2021/12/07 10:51:17;;;;;;;11.70;3.40;;;;;;;;;;5096726;28;20135;-77
2021/12/07 10:53:53;;;;;;;7.55;3.30;;;;;;;;;;5093668;28;20035;-76
2021/12/07 10:56:29;;;;;;;10.23;3.20;;;;;;;;;;5110979;28;20521;-77
2021/12/07 10:59:03;;;;;;;12.40;3.28;;;;;;;;;;5097421;28;20051;-76
2021/12/07 11:01:34;;;;;;;11.23;3.50;;;;;;;;;;5111028;28;20421;-84
2021/12/07 11:04:19;;;;;;;11.40;3.30;;;;;;;;;;5111912;28;20130;-84
2021/12/07 11:07:04;;;;;;;15.10;4.00;;;;;;;;;;5111089;28;20051;-83
2021/12/07 11:09:37;;;;;;;8.30;3.60;;;;;;;;;;5110740;28;20036;-84
2021/12/07 11:12:07;;;;;;;11.65;3.38;;;;;;;;;;5110868;28;20067;-84
2021/12/07 11:14:40;;;;;;;8.52;3.08;;;;;;;;;;5093806;28;20494;-84
2021/12/07 11:17:08;;;;;;;10.68;3.63;;;;;;;;;;5093366;28;20039;-76
2021/12/07 11:19:35;;;;;;;10.77;3.30;;;;;;;;;;5110194;28;20074;-76
2021/12/07 11:22:01;;;;;;;10.45;3.60;;;;;;;;;;5093297;28;20052;-76
2021/12/07 11:24:35;;;;;;;10.32;3.65;;;;;;;;;;5109659;28;20147;-76
2021/12/07 11:29:57;;;;;;;8.82;2.97;;;;;;;;;;5109953;28;20032;-76
2021/12/07 11:32:23;;;;;;;11.90;2.92;;;;;;;;;;5109562;28;20039;-76
2021/12/07 11:34:49;;;;;;;7.85;3.22;;;;;;;;;;5110145;28;20039;-76
2021/12/07 11:37:15;;;;;;;12.57;3.13;;;;;;;;;;5100059;28;20075;-84
2021/12/07 11:39:49;;;;;;;9.70;2.90;;;;;;;;;;5104767;27;20059;-76
2021/12/07 11:42:35;;;;;;;14.93;3.47;;;;;;;;;;5099161;28;20047;-76
2021/12/07 11:45:06;;;;;;;12.50;3.40;;;;;;;;;;5109376;28;20039;-83
2021/12/07 11:47:34;;;;;;;11.65;3.38;;;;;;;;;;5109562;28;20047;-83
2021/12/07 11:50:09;;;;;;;13.32;3.30;;;;;;;;;;5109615;28;20101;-82
2021/12/07 11:52:35;;;;;;;12.93;3.60;;;;;;;;;;5109918;28;20093;-82
2021/12/07 11:55:01;;;;;;;11.65;3.47;;;;;;;;;;5094995;28;20122;-76
2021/12/07 11:57:27;;;;;;;11.68;4.05;;;;;;;;;;5092112;28;20475;-75
2021/12/07 11:59:53;;;;;;;11.10;3.42;;;;;;;;;;5109164;28;20039;-76
2021/12/07 12:02:20;;;;;;;8.98;3.60;;;;;;;;;;5091826;28;20092;-76
2021/12/07 12:04:47;;;;;;;14.88;3.60;;;;;;;;;;5109490;28;20047;-75
2021/12/07 12:07:13;;;;;;;13.55;3.83;;;;;;;;;;5108923;28;20530;-75
2021/12/07 12:09:49;;;;;;;11.73;3.70;;;;;;;;;;5109404;28;20043;-81
2021/12/07 12:12:15;;;;;;;;;;;;;;;;;;5094280;28;20094;-82
2021/12/07 12:14:48;;;;;;;12.02;3.15;;;;;;;;;;5109600;28;20418;-81
2021/12/07 12:17:18;;;;;;;16.42;3.70;;;;;;;;;;5109918;28;20047;-81
2021/12/07 12:19:53;;;;;;;14.45;3.70;;;;;;;;;;5089758;28;20044;-83
2021/12/07 12:22:24;;;;;;;16.02;3.50;;;;;;;;;;5102620;28;20044;-83
2021/12/07 12:24:52;;;;;;;16.45;3.88;;;;;;;;;;5095624;28;20153;-83
2021/12/07 12:27:20;;;;;;;12.68;3.47;;;;;;;;;;5093506;28;20476;-82
2021/12/07 12:29:49;;;;;;;14.23;3.63;;;;;;;;;;5109139;28;20379;-75
2021/12/07 12:32:25;;;;;;;16.10;4.50;;;;;;;;;;5097547;28;20046;-76
2021/12/07 12:34:51;;;;;;;15.65;3.92;;;;;;;;;;5090210;28;20118;-75
2021/12/07 12:37:18;;;;;;;10.85;3.88;;;;;;;;;;5108847;28;20047;-76
2021/12/07 12:39:54;;;;;;;16.58;3.80;;;;;;;;;;5108769;28;20040;-75
2021/12/07 12:42:27;;;;;;;12.20;4.28;;;;;;;;;;5081667;28;20047;-75
2021/12/07 12:45:21;;;;;;;13.15;4.07;;;;;;;;;;5088399;28;20035;-75
2021/12/07 12:47:55;;;;;;;13.15;4.05;;;;;;;;;;5108701;28;20151;-76
2021/12/07 12:50:25;;;;;;;12.20;4.20;;;;;;;;;;5094456;28;20046;-76
2021/12/07 12:52:53;;;;;;;12.45;4.13;;;;;;;;;;5109442;28;20126;-82
2021/12/07 12:55:27;;;;;;;13.98;4.40;;;;;;;;;;5092609;28;20080;-82
2021/12/07 12:57:54;;;;;;;11.93;4.38;;;;;;;;;;5110377;28;20079;-76
2021/12/07 13:00:21;;;;;;;11.15;4.25;;;;;;;;;;5109043;28;20061;-82
2021/12/07 13:02:54;;;;;;;9.07;4.15;;;;;;;;;;5109650;28;20035;-76
2021/12/07 13:05:34;;;;;;;14.25;4.07;;;;;;;;;;5094672;28;20395;-76
2021/12/07 13:08:14;;;;;;;16.73;4.50;;;;;;;;;;5095657;28;20514;-76
2021/12/07 13:11:03;;;;;;;15.02;5.13;;;;;;;;;;5090991;28;20043;-82
2021/12/07 13:13:32;;;;;;;11.63;4.40;;;;;;;;;;5098007;28;20048;-82
2021/12/07 13:15:58;;;;;;;13.68;4.75;;;;;;;;;;5109340;28;20042;-82
2021/12/07 13:18:32;;;;;;;13.90;4.57;;;;;;;;;;5107723;28;20051;-82
2021/12/07 13:20:58;;;;;;;17.27;4.78;;;;;;;;;;5106013;28;20048;-82
2021/12/07 13:23:29;;;;;;;16.45;4.82;;;;;;;;;;5062732;28;20046;-76
2021/12/07 13:25:55;;;;;;;14.23;4.70;;;;;;;;;;5108751;28;20052;-82
2021/12/07 13:28:29;;;;;;;15.48;4.60;;;;;;;;;;5108460;28;20055;-82
2021/12/07 13:30:55;;;;;;;14.75;5.43;;;;;;;;;;5108353;28;20046;-82
2021/12/07 13:33:31;;;;;;;10.57;4.55;;;;;;;;;;5091071;28;20032;-76
2021/12/07 13:35:58;;;;;;;13.43;4.53;;;;;;;;;;5108167;28;20503;-76
2021/12/07 13:38:26;;;;;;;14.73;4.68;;;;;;;;;;5107800;28;20036;-76
2021/12/07 13:41:12;;;;;;;14.93;5.43;;;;;;;;;;5091411;28;20046;-77
2021/12/07 13:43:38;;;;;;;18.40;5.03;;;;;;;;;;5070744;28;20052;-76
2021/12/07 13:46:22;;;;;;;17.55;5.32;;;;;;;;;;5100320;28;20047;-77
2021/12/07 13:48:51;;;;;;;16.85;5.63;;;;;;;;;;5094974;28;20042;-77
2021/12/07 13:51:19;;;;;;;21.60;6.10;;;;;;;;;;5093874;28;20097;-82
2021/12/07 13:53:45;;;;;;;20.23;6.35;;;;;;;;;;5108292;28;20042;-82
2021/12/07 13:56:12;;;;;;;17.55;5.93;;;;;;;;;;5107638;28;20482;-77
2021/12/07 13:59:01;;;;;;;16.55;6.15;;;;;;;;;;5093419;28;20040;-76
2021/12/07 14:01:28;;;;;;;16.60;5.88;;;;;;;;;;5078052;28;20059;-76
2021/12/07 14:03:56;;;;;;;18.83;5.68;;;;;;;;;;5090643;28;20273;-76
2021/12/07 14:06:22;;;;;;;16.58;6.07;;;;;;;;;;5090942;28;20490;-82
2021/12/07 14:08:49;;;;;;;19.50;6.88;;;;;;;;;;5107729;28;20075;-82
2021/12/07 14:11:17;;;;;;;20.80;8.48;;;;;;;;;;5107520;28;20044;-81
2021/12/07 14:13:44;;;;;;;24.67;9.77;;;;;;;;;;5107880;28;20143;-83
2021/12/07 14:16:12;;;;;;;23.25;10.27;;;;;;;;;;5103959;28;20386;-82
2021/12/07 14:18:38;;;;;;;26.63;11.48;;;;;;;;;;5081861;28;20055;-82
2021/12/07 14:21:05;;;;;;;29.15;12.73;;;;;;;;;;5095257;28;20054;-76
2021/12/07 14:23:39;;;;;;;28.25;11.95;;;;;;;;;;5078191;28;20623;-76
2021/12/07 14:26:05;;;;;;;29.15;12.70;;;;;;;;;;5097979;28;20048;-76
2021/12/07 14:28:51;;;;;;;27.77;13.13;;;;;;;;;;5094163;28;20089;-76
2021/12/07 14:31:17;;;;;;;26.73;12.30;;;;;;;;;;5093826;28;20054;-76
2021/12/07 14:33:45;;;;;;;27.30;12.57;;;;;;;;;;5111385;28;20081;-76
2021/12/07 14:36:12;;;;;;;30.90;12.20;;;;;;;;;;5113148;28;20168;-76
2021/12/07 14:38:39;;;;;;;30.15;12.02;;;;;;;;;;5112422;28;20040;-77
2021/12/07 14:41:13;;;;;;;30.45;13.55;;;;;;;;;;5113760;28;20039;-75
2021/12/07 14:43:40;;;;;;;30.23;12.70;;;;;;;;;;5102297;28;20040;-81
2021/12/07 14:46:08;;;;;;;25.63;12.43;;;;;;;;;;5111541;28;20075;-83
2021/12/07 14:48:34;;;;;;;22.83;11.20;;;;;;;;;;5111658;28;20498;-77
2021/12/07 14:51:01;;;;;;;33.17;12.55;;;;;;;;;;5111121;28;20572;-76
2021/12/07 14:53:32;;;;;;;25.02;11.07;;;;;;;;;;5110869;28;20468;-83
2021/12/07 14:55:58;;;;;;;27.63;11.18;;;;;;;;;;5100925;28;20434;-82
2021/12/07 14:58:31;;;;;;;25.10;11.63;;;;;;;;;;5089722;28;20036;-82
2021/12/07 15:00:57;;;;;;;25.45;11.13;;;;;;;;;;5111366;28;20517;-84
2021/12/07 15:03:33;;;;;;;23.55;11.25;;;;;;;;;;5127285;27;20122;-76
2021/12/07 15:05:59;;;;;;;30.70;12.13;;;;;;;;;;5110486;28;20096;-82
2021/12/07 15:08:25;;;;;;;38.28;15.00;;;;;;;;;;5110365;27;20309;-84
2021/12/07 15:10:51;;;;;;;31.60;13.93;;;;;;;;;;5111965;28;20044;-82
2021/12/07 15:13:17;;;;;;;30.02;12.65;;;;;;;;;;5111494;28;20040;-81
2021/12/07 15:15:43;;;;;;;26.45;12.70;;;;;;;;;;5078016;28;20127;-82
2021/12/07 15:18:13;;;;;;;32.95;13.35;;;;;;;;;;5094258;28;20055;-81
2021/12/07 15:20:39;;;;;;;30.00;12.15;;;;;;;;;;5112241;28;20047;-85
2021/12/07 15:23:06;;;;;;;28.85;12.40;;;;;;;;;;5111366;28;20134;-81
2021/12/07 15:25:32;;;;;;;30.13;13.40;;;;;;;;;;5110864;28;20043;-81
2021/12/07 15:27:59;;;;;;;35.67;13.45;;;;;;;;;;5110200;28;20039;-82
2021/12/07 15:30:26;;;;;;;28.80;12.93;;;;;;;;;;5110295;28;20432;-82
2021/12/07 15:32:52;;;;;;;28.23;11.27;;;;;;;;;;5110551;28;20084;-77
2021/12/07 15:35:22;;;;;;;24.13;10.30;;;;;;;;;;5093105;28;20483;-77
2021/12/07 15:37:48;;;;;;;28.65;11.15;;;;;;;;;;5093277;28;20042;-77
2021/12/07 15:40:14;;;;;;;30.05;10.52;;;;;;;;;;5109794;28;20031;-77
2021/12/07 15:42:41;;;;;;;25.42;10.93;;;;;;;;;;5096908;28;20149;-74
2021/12/07 15:45:09;;;;;;;18.05;9.15;;;;;;;;;;5108567;28;20048;-74
2021/12/07 15:47:38;;;;;;;24.98;9.95;;;;;;;;;;5109787;28;20047;-73
2021/12/07 15:50:15;;;;;;;28.35;9.88;;;;;;;;;;5110054;28;20074;-74
2021/12/07 15:52:42;;;;;;;26.75;10.45;;;;;;;;;;5098711;28;20044;-74
2021/12/07 15:55:08;;;;;;;24.35;9.80;;;;;;;;;;5089311;28;20042;-75
2021/12/07 15:57:42;;;;;;;25.42;9.88;;;;;;;;;;5109812;28;20039;-80
2021/12/07 16:00:09;;;;;;;21.40;8.68;;;;;;;;;;5095318;28;20046;-82
2021/12/07 16:02:35;;;;;;;20.88;8.63;;;;;;;;;;5110204;28;20039;-81
2021/12/07 16:05:06;;;;;;;21.48;9.13;;;;;;;;;;5092849;28;20054;-74
2021/12/07 16:07:33;;;;;;;17.02;8.20;;;;;;;;;;5109171;28;20036;-74
2021/12/07 16:10:04;;;;;;;22.95;9.07;;;;;;;;;;5109706;28;20050;-75
2021/12/07 16:12:30;;;;;;;18.05;7.95;;;;;;;;;;5092019;28;20040;-75
2021/12/07 16:15:16;;;;;;;24.75;9.57;;;;;;;;;;5109810;28;20040;-75